sensor_id;sensor_type;location;lat;lon;timestamp;temperature;humidity
17333;DHT22;8784;50.94667800;7.08448400;2022-07-23T00:00:16;20.80;98.80
17333;DHT22;8784;50.94667800;7.08448400;2022-07-23T00:02:43;20.80;99.00
17333;DHT22;8784;50.94667800;7.08448400;2022-07-23T00:05:10;20.80;99.00
17333;DHT22;8784;50.94667800;7.08448400;2022-07-23T00:07:38;20.80;99.00
17333;DHT22;8784;50.94667800;7.08448400;2022-07-23T00:10:07;20.80;99.00
17333;DHT22;8784;50.94667800;7.08448400;2022-07-23T00:12:34;20.80;99.10
17333;DHT22;8784;50.94667800;7.08448400;2022-07-23T00:15:04;20.80;99.10
17333;DHT22;8784;50.94667800;7.08448400;2022-07-23T00:17:32;20.80;99.20
17333;DHT22;8784;50.94667800;7.08448400;2022-07-23T00:19:59;20.80;99.20
17333;DHT22;8784;50.94667800;7.08448400;2022-07-23T00:22:26;20.80;99.20
17333;DHT22;8784;50.94667800;7.08448400;2022-07-23T00:24:54;20.80;99.20
17333;DHT22;8784;50.94667800;7.08448400;2022-07-23T00:27:23;20.80;99.20
17333;DHT22;8784;50.94667800;7.08448400;2022-07-23T00:29:50;20.80;99.20
17333;DHT22;8784;50.94667800;7.08448400;2022-07-23T00:32:17;20.80;99.30
17333;DHT22;8784;50.94667800;7.08448400;2022-07-23T00:34:44;20.80;99.30
17333;DHT22;8784;50.94667800;7.08448400;2022-07-23T00:37:11;20.70;99.80
17333;DHT22;8784;50.94667800;7.08448400;2022-07-23T00:39:39;20.70;99.60
17333;DHT22;8784;50.94667800;7.08448400;2022-07-23T00:42:06;20.70;99.80
17333;DHT22;8784;50.94667800;7.08448400;2022-07-23T00:44:34;20.60;99.80
17333;DHT22;8784;50.94667800;7.08448400;2022-07-23T00:47:01;20.70;99.90
17333;DHT22;8784;50.94667800;7.08448400;2022-07-23T00:49:30;20.70;99.90
17333;DHT22;8784;50.94667800;7.08448400;2022-07-23T00:51:57;20.70;99.90
17333;DHT22;8784;50.94667800;7.08448400;2022-07-23T00:54:27;20.60;99.90
17333;DHT22;8784;50.94667800;7.08448400;2022-07-23T00:56:54;20.60;99.90
17333;DHT22;8784;50.94667800;7.08448400;2022-07-23T00:59:21;20.60;99.90
17333;DHT22;8784;50.94667800;7.08448400;2022-07-23T01:01:49;20.60;99.90
17333;DHT22;8784;50.94667800;7.08448400;2022-07-23T01:04:16;20.50;99.90
17333;DHT22;8784;50.94667800;7.08448400;2022-07-23T01:06:44;20.60;99.90
17333;DHT22;8784;50.94667800;7.08448400;2022-07-23T01:09:11;20.50;99.90
17333;DHT22;8784;50.94667800;7.08448400;2022-07-23T01:11:38;20.50;99.90
17333;DHT22;8784;50.94667800;7.08448400;2022-07-23T01:14:10;20.50;99.90
17333;DHT22;8784;50.94667800;7.08448400;2022-07-23T01:16:38;20.50;99.90
17333;DHT22;8784;50.94667800;7.08448400;2022-07-23T01:19:06;20.50;99.90
17333;DHT22;8784;50.94667800;7.08448400;2022-07-23T01:21:36;20.40;99.90
17333;DHT22;8784;50.94667800;7.08448400;2022-07-23T01:24:05;20.40;99.90
17333;DHT22;8784;50.94667800;7.08448400;2022-07-23T01:26:32;20.30;99.90
17333;DHT22;8784;50.94667800;7.08448400;2022-07-23T01:29:00;20.30;99.90
17333;DHT22;8784;50.94667800;7.08448400;2022-07-23T01:31:27;20.30;99.90
17333;DHT22;8784;50.94667800;7.08448400;2022-07-23T01:33:54;20.20;99.90
17333;DHT22;8784;50.94667800;7.08448400;2022-07-23T01:36:21;20.10;99.90
17333;DHT22;8784;50.94667800;7.08448400;2022-07-23T01:38:48;19.90;99.90
17333;DHT22;8784;50.94667800;7.08448400;2022-07-23T01:41:17;19.90;99.90
17333;DHT22;8784;50.94667800;7.08448400;2022-07-23T01:43:44;19.80;99.90
17333;DHT22;8784;50.94667800;7.08448400;2022-07-23T01:46:11;19.80;99.90
17333;DHT22;8784;50.94667800;7.08448400;2022-07-23T01:48:38;19.70;99.90
17333;DHT22;8784;50.94667800;7.08448400;2022-07-23T01:51:05;19.70;99.90
17333;DHT22;8784;50.94667800;7.08448400;2022-07-23T01:53:32;19.70;99.90
17333;DHT22;8784;50.94667800;7.08448400;2022-07-23T01:55:59;19.70;99.90
17333;DHT22;8784;50.94667800;7.08448400;2022-07-23T01:58:28;19.60;99.90
17333;DHT22;8784;50.94667800;7.08448400;2022-07-23T02:00:55;19.50;99.90
17333;DHT22;8784;50.94667800;7.08448400;2022-07-23T02:03:22;19.50;99.90
17333;DHT22;8784;50.94667800;7.08448400;2022-07-23T02:05:49;19.50;99.90
17333;DHT22;8784;50.94667800;7.08448400;2022-07-23T02:08:17;19.50;99.90
17333;DHT22;8784;50.94667800;7.08448400;2022-07-23T02:10:44;19.50;99.90
17333;DHT22;8784;50.94667800;7.08448400;2022-07-23T02:13:11;19.40;99.90
17333;DHT22;8784;50.94667800;7.08448400;2022-07-23T02:15:40;19.40;99.90
17333;DHT22;8784;50.94667800;7.08448400;2022-07-23T02:18:07;19.40;99.90
17333;DHT22;8784;50.94667800;7.08448400;2022-07-23T02:20:34;19.40;99.90
17333;DHT22;8784;50.94667800;7.08448400;2022-07-23T02:23:04;19.40;99.90
17333;DHT22;8784;50.94667800;7.08448400;2022-07-23T02:25:31;19.40;99.90
17333;DHT22;8784;50.94667800;7.08448400;2022-07-23T02:27:58;19.30;99.90
17333;DHT22;8784;50.94667800;7.08448400;2022-07-23T02:30:25;19.30;99.90
17333;DHT22;8784;50.94667800;7.08448400;2022-07-23T02:32:54;19.20;99.90
17333;DHT22;8784;50.94667800;7.08448400;2022-07-23T02:35:21;19.20;99.90
17333;DHT22;8784;50.94667800;7.08448400;2022-07-23T02:37:48;19.20;99.90
17333;DHT22;8784;50.94667800;7.08448400;2022-07-23T02:40:15;19.20;99.90
17333;DHT22;8784;50.94667800;7.08448400;2022-07-23T02:42:42;19.30;99.90
17333;DHT22;8784;50.94667800;7.08448400;2022-07-23T02:45:09;19.30;99.90
17333;DHT22;8784;50.94667800;7.08448400;2022-07-23T02:47:36;19.30;99.90
17333;DHT22;8784;50.94667800;7.08448400;2022-07-23T02:50:06;19.30;99.90
17333;DHT22;8784;50.94667800;7.08448400;2022-07-23T02:52:33;19.30;99.90
17333;DHT22;8784;50.94667800;7.08448400;2022-07-23T02:55:00;19.20;99.90
17333;DHT22;8784;50.94667800;7.08448400;2022-07-23T02:57:27;19.20;99.90
17333;DHT22;8784;50.94667800;7.08448400;2022-07-23T02:59:54;19.20;99.90
17333;DHT22;8784;50.94667800;7.08448400;2022-07-23T03:02:21;19.20;99.90
17333;DHT22;8784;50.94667800;7.08448400;2022-07-23T03:04:49;19.20;99.90
17333;DHT22;8784;50.94667800;7.08448400;2022-07-23T03:07:18;19.20;99.90
17333;DHT22;8784;50.94667800;7.08448400;2022-07-23T03:09:45;19.20;99.90
17333;DHT22;8784;50.94667800;7.08448400;2022-07-23T03:12:12;19.10;99.90
17333;DHT22;8784;50.94667800;7.08448400;2022-07-23T03:14:39;19.10;99.90
17333;DHT22;8784;50.94667800;7.08448400;2022-07-23T03:17:06;19.10;99.90
17333;DHT22;8784;50.94667800;7.08448400;2022-07-23T03:19:34;19.00;99.90
17333;DHT22;8784;50.94667800;7.08448400;2022-07-23T03:22:02;19.00;99.90
17333;DHT22;8784;50.94667800;7.08448400;2022-07-23T03:24:30;19.00;99.90
17333;DHT22;8784;50.94667800;7.08448400;2022-07-23T03:27:11;19.00;99.90
17333;DHT22;8784;50.94667800;7.08448400;2022-07-23T03:29:38;19.00;99.90
17333;DHT22;8784;50.94667800;7.08448400;2022-07-23T03:32:05;18.90;99.90
17333;DHT22;8784;50.94667800;7.08448400;2022-07-23T03:34:32;18.90;99.90
17333;DHT22;8784;50.94667800;7.08448400;2022-07-23T03:36:59;18.80;99.90
17333;DHT22;8784;50.94667800;7.08448400;2022-07-23T03:39:27;18.80;99.90
17333;DHT22;8784;50.94667800;7.08448400;2022-07-23T03:41:55;18.80;99.90
17333;DHT22;8784;50.94667800;7.08448400;2022-07-23T03:44:22;18.70;99.90
17333;DHT22;8784;50.94667800;7.08448400;2022-07-23T03:46:49;18.70;99.90
17333;DHT22;8784;50.94667800;7.08448400;2022-07-23T03:49:16;18.70;99.90
17333;DHT22;8784;50.94667800;7.08448400;2022-07-23T03:51:43;18.70;99.90
17333;DHT22;8784;50.94667800;7.08448400;2022-07-23T03:54:10;18.70;99.90
17333;DHT22;8784;50.94667800;7.08448400;2022-07-23T03:56:37;18.60;99.90
17333;DHT22;8784;50.94667800;7.08448400;2022-07-23T03:59:06;18.60;99.90
17333;DHT22;8784;50.94667800;7.08448400;2022-07-23T04:01:33;18.70;99.90
17333;DHT22;8784;50.94667800;7.08448400;2022-07-23T04:04:00;18.50;99.90
17333;DHT22;8784;50.94667800;7.08448400;2022-07-23T04:06:27;18.50;99.90
17333;DHT22;8784;50.94667800;7.08448400;2022-07-23T04:08:54;18.50;99.90
17333;DHT22;8784;50.94667800;7.08448400;2022-07-23T04:11:21;18.50;99.90
17333;DHT22;8784;50.94667800;7.08448400;2022-07-23T04:13:49;18.50;99.90
17333;DHT22;8784;50.94667800;7.08448400;2022-07-23T04:16:17;18.40;99.90
17333;DHT22;8784;50.94667800;7.08448400;2022-07-23T04:18:44;18.40;99.90
17333;DHT22;8784;50.94667800;7.08448400;2022-07-23T04:21:11;18.40;99.90
17333;DHT22;8784;50.94667800;7.08448400;2022-07-23T04:23:38;18.40;99.90
17333;DHT22;8784;50.94667800;7.08448400;2022-07-23T04:26:05;18.40;99.90
17333;DHT22;8784;50.94667800;7.08448400;2022-07-23T04:28:33;18.30;99.90
17333;DHT22;8784;50.94667800;7.08448400;2022-07-23T04:31:00;18.30;99.90
17333;DHT22;8784;50.94667800;7.08448400;2022-07-23T04:33:28;18.30;99.90
17333;DHT22;8784;50.94667800;7.08448400;2022-07-23T04:35:55;18.40;99.90
17333;DHT22;8784;50.94667800;7.08448400;2022-07-23T04:38:22;18.30;99.90
17333;DHT22;8784;50.94667800;7.08448400;2022-07-23T04:40:49;18.30;99.90
17333;DHT22;8784;50.94667800;7.08448400;2022-07-23T04:43:16;18.30;99.90
17333;DHT22;8784;50.94667800;7.08448400;2022-07-23T04:45:43;18.30;99.90
17333;DHT22;8784;50.94667800;7.08448400;2022-07-23T04:48:10;18.30;99.90
17333;DHT22;8784;50.94667800;7.08448400;2022-07-23T04:50:38;18.30;99.90
17333;DHT22;8784;50.94667800;7.08448400;2022-07-23T04:53:05;18.30;99.90
17333;DHT22;8784;50.94667800;7.08448400;2022-07-23T04:55:32;18.30;99.90
17333;DHT22;8784;50.94667800;7.08448400;2022-07-23T04:57:59;18.30;99.90
17333;DHT22;8784;50.94667800;7.08448400;2022-07-23T05:00:26;18.40;99.90
17333;DHT22;8784;50.94667800;7.08448400;2022-07-23T05:02:53;18.30;99.90
17333;DHT22;8784;50.94667800;7.08448400;2022-07-23T05:05:20;18.30;99.90
17333;DHT22;8784;50.94667800;7.08448400;2022-07-23T05:07:48;18.40;99.90
17333;DHT22;8784;50.94667800;7.08448400;2022-07-23T05:10:15;18.40;99.90
17333;DHT22;8784;50.94667800;7.08448400;2022-07-23T05:12:42;18.40;99.90
17333;DHT22;8784;50.94667800;7.08448400;2022-07-23T05:15:09;18.40;99.90
17333;DHT22;8784;50.94667800;7.08448400;2022-07-23T05:17:36;18.40;99.90
17333;DHT22;8784;50.94667800;7.08448400;2022-07-23T05:20:04;18.50;99.90
17333;DHT22;8784;50.94667800;7.08448400;2022-07-23T05:22:31;18.50;99.90
17333;DHT22;8784;50.94667800;7.08448400;2022-07-23T05:25:00;18.50;99.90
17333;DHT22;8784;50.94667800;7.08448400;2022-07-23T05:27:27;18.60;99.90
17333;DHT22;8784;50.94667800;7.08448400;2022-07-23T05:29:54;18.60;99.90
17333;DHT22;8784;50.94667800;7.08448400;2022-07-23T05:32:21;18.60;99.90
17333;DHT22;8784;50.94667800;7.08448400;2022-07-23T05:34:48;18.70;99.90
17333;DHT22;8784;50.94667800;7.08448400;2022-07-23T05:37:16;18.70;99.90
17333;DHT22;8784;50.94667800;7.08448400;2022-07-23T05:39:42;18.80;99.90
17333;DHT22;8784;50.94667800;7.08448400;2022-07-23T05:42:11;18.80;99.90
17333;DHT22;8784;50.94667800;7.08448400;2022-07-23T05:44:38;18.80;99.90
17333;DHT22;8784;50.94667800;7.08448400;2022-07-23T05:47:05;18.90;99.90
17333;DHT22;8784;50.94667800;7.08448400;2022-07-23T05:49:32;19.10;99.90
17333;DHT22;8784;50.94667800;7.08448400;2022-07-23T05:52:04;19.00;99.90
17333;DHT22;8784;50.94667800;7.08448400;2022-07-23T05:54:31;19.10;99.90
17333;DHT22;8784;50.94667800;7.08448400;2022-07-23T05:56:58;19.10;99.90
17333;DHT22;8784;50.94667800;7.08448400;2022-07-23T05:59:27;19.20;99.90
17333;DHT22;8784;50.94667800;7.08448400;2022-07-23T06:01:54;19.30;99.90
17333;DHT22;8784;50.94667800;7.08448400;2022-07-23T06:04:21;19.30;99.90
17333;DHT22;8784;50.94667800;7.08448400;2022-07-23T06:06:48;19.30;99.90
17333;DHT22;8784;50.94667800;7.08448400;2022-07-23T06:09:15;19.40;99.90
17333;DHT22;8784;50.94667800;7.08448400;2022-07-23T06:11:42;19.40;99.90
17333;DHT22;8784;50.94667800;7.08448400;2022-07-23T06:14:09;19.50;99.90
17333;DHT22;8784;50.94667800;7.08448400;2022-07-23T06:16:37;19.50;99.90
17333;DHT22;8784;50.94667800;7.08448400;2022-07-23T06:19:04;19.60;99.90
17333;DHT22;8784;50.94667800;7.08448400;2022-07-23T06:21:31;19.70;99.90
17333;DHT22;8784;50.94667800;7.08448400;2022-07-23T06:23:58;19.70;99.90
17333;DHT22;8784;50.94667800;7.08448400;2022-07-23T06:26:25;19.80;99.90
17333;DHT22;8784;50.94667800;7.08448400;2022-07-23T06:28:52;19.90;99.90
17333;DHT22;8784;50.94667800;7.08448400;2022-07-23T06:31:19;20.00;99.90
17333;DHT22;8784;50.94667800;7.08448400;2022-07-23T06:33:48;20.10;99.90
17333;DHT22;8784;50.94667800;7.08448400;2022-07-23T06:36:21;20.20;99.90
17333;DHT22;8784;50.94667800;7.08448400;2022-07-23T06:38:48;20.20;99.90
17333;DHT22;8784;50.94667800;7.08448400;2022-07-23T06:41:15;20.30;99.90
17333;DHT22;8784;50.94667800;7.08448400;2022-07-23T06:43:42;20.40;99.90
17333;DHT22;8784;50.94667800;7.08448400;2022-07-23T06:46:09;20.50;99.90
17333;DHT22;8784;50.94667800;7.08448400;2022-07-23T06:48:36;20.60;99.90
17333;DHT22;8784;50.94667800;7.08448400;2022-07-23T06:51:05;21.00;99.90
17333;DHT22;8784;50.94667800;7.08448400;2022-07-23T06:53:32;21.40;99.90
17333;DHT22;8784;50.94667800;7.08448400;2022-07-23T06:55:59;22.10;99.90
17333;DHT22;8784;50.94667800;7.08448400;2022-07-23T06:58:26;22.90;99.90
17333;DHT22;8784;50.94667800;7.08448400;2022-07-23T07:00:53;23.70;99.90
17333;DHT22;8784;50.94667800;7.08448400;2022-07-23T07:03:22;24.60;99.90
17333;DHT22;8784;50.94667800;7.08448400;2022-07-23T07:05:49;25.30;99.90
17333;DHT22;8784;50.94667800;7.08448400;2022-07-23T07:08:19;26.10;99.90
17333;DHT22;8784;50.94667800;7.08448400;2022-07-23T07:10:45;26.70;99.90
17333;DHT22;8784;50.94667800;7.08448400;2022-07-23T07:13:13;27.30;99.90
17333;DHT22;8784;50.94667800;7.08448400;2022-07-23T07:15:46;27.90;99.10
17333;DHT22;8784;50.94667800;7.08448400;2022-07-23T07:18:13;28.60;97.10
17333;DHT22;8784;50.94667800;7.08448400;2022-07-23T07:20:40;29.20;95.70
17333;DHT22;8784;50.94667800;7.08448400;2022-07-23T07:23:07;29.70;94.00
17333;DHT22;8784;50.94667800;7.08448400;2022-07-23T07:25:37;30.00;93.00
17333;DHT22;8784;50.94667800;7.08448400;2022-07-23T07:28:08;30.40;91.10
17333;DHT22;8784;50.94667800;7.08448400;2022-07-23T07:30:56;30.50;89.20
17333;DHT22;8784;50.94667800;7.08448400;2022-07-23T07:33:23;30.50;83.40
17333;DHT22;8784;50.94667800;7.08448400;2022-07-23T07:35:50;30.60;85.00
17333;DHT22;8784;50.94667800;7.08448400;2022-07-23T07:38:17;31.00;84.00
17333;DHT22;8784;50.94667800;7.08448400;2022-07-23T07:40:46;31.50;82.50
17333;DHT22;8784;50.94667800;7.08448400;2022-07-23T07:43:13;31.80;80.00
17333;DHT22;8784;50.94667800;7.08448400;2022-07-23T07:45:41;32.00;78.20
17333;DHT22;8784;50.94667800;7.08448400;2022-07-23T07:48:08;32.30;76.50
17333;DHT22;8784;50.94667800;7.08448400;2022-07-23T07:50:35;32.50;76.10
17333;DHT22;8784;50.94667800;7.08448400;2022-07-23T07:53:02;32.60;74.50
17333;DHT22;8784;50.94667800;7.08448400;2022-07-23T07:55:30;32.70;73.30
17333;DHT22;8784;50.94667800;7.08448400;2022-07-23T07:57:59;32.70;73.30
17333;DHT22;8784;50.94667800;7.08448400;2022-07-23T08:00:26;32.70;73.50
17333;DHT22;8784;50.94667800;7.08448400;2022-07-23T08:02:54;32.80;72.70
17333;DHT22;8784;50.94667800;7.08448400;2022-07-23T08:05:22;32.90;71.50
17333;DHT22;8784;50.94667800;7.08448400;2022-07-23T08:07:49;32.90;71.20
17333;DHT22;8784;50.94667800;7.08448400;2022-07-23T08:10:16;33.00;70.60
17333;DHT22;8784;50.94667800;7.08448400;2022-07-23T08:12:45;33.10;69.20
17333;DHT22;8784;50.94667800;7.08448400;2022-07-23T08:15:15;33.40;68.30
17333;DHT22;8784;50.94667800;7.08448400;2022-07-23T08:17:42;33.50;67.20
17333;DHT22;8784;50.94667800;7.08448400;2022-07-23T08:20:10;33.70;67.10
17333;DHT22;8784;50.94667800;7.08448400;2022-07-23T08:22:49;33.70;67.20
17333;DHT22;8784;50.94667800;7.08448400;2022-07-23T08:25:20;33.80;64.80
17333;DHT22;8784;50.94667800;7.08448400;2022-07-23T08:27:47;33.90;65.90
17333;DHT22;8784;50.94667800;7.08448400;2022-07-23T08:30:16;33.50;65.40
17333;DHT22;8784;50.94667800;7.08448400;2022-07-23T08:32:50;33.50;64.50
17333;DHT22;8784;50.94667800;7.08448400;2022-07-23T08:35:18;33.60;63.30
17333;DHT22;8784;50.94667800;7.08448400;2022-07-23T08:37:47;33.70;64.90
17333;DHT22;8784;50.94667800;7.08448400;2022-07-23T08:40:15;33.80;64.20
17333;DHT22;8784;50.94667800;7.08448400;2022-07-23T08:42:41;33.90;64.20
17333;DHT22;8784;50.94667800;7.08448400;2022-07-23T08:45:09;33.90;64.10
17333;DHT22;8784;50.94667800;7.08448400;2022-07-23T08:47:38;33.90;63.20
17333;DHT22;8784;50.94667800;7.08448400;2022-07-23T08:50:07;33.80;62.70
17333;DHT22;8784;50.94667800;7.08448400;2022-07-23T08:52:35;34.00;63.50
17333;DHT22;8784;50.94667800;7.08448400;2022-07-23T08:55:03;33.90;63.20
17333;DHT22;8784;50.94667800;7.08448400;2022-07-23T08:57:30;34.00;62.60
17333;DHT22;8784;50.94667800;7.08448400;2022-07-23T08:59:57;34.10;62.10
17333;DHT22;8784;50.94667800;7.08448400;2022-07-23T09:02:25;34.10;61.90
17333;DHT22;8784;50.94667800;7.08448400;2022-07-23T09:04:53;33.90;62.20
17333;DHT22;8784;50.94667800;7.08448400;2022-07-23T09:07:20;33.50;61.30
17333;DHT22;8784;50.94667800;7.08448400;2022-07-23T09:09:47;33.00;61.10
17333;DHT22;8784;50.94667800;7.08448400;2022-07-23T09:12:26;32.40;61.20
17333;DHT22;8784;50.94667800;7.08448400;2022-07-23T09:14:52;31.60;61.40
17333;DHT22;8784;50.94667800;7.08448400;2022-07-23T09:17:19;31.50;62.60
17333;DHT22;8784;50.94667800;7.08448400;2022-07-23T09:19:47;31.60;63.10
17333;DHT22;8784;50.94667800;7.08448400;2022-07-23T09:22:20;31.70;63.20
17333;DHT22;8784;50.94667800;7.08448400;2022-07-23T09:25:05;31.70;62.90
17333;DHT22;8784;50.94667800;7.08448400;2022-07-23T09:27:51;31.50;61.60
17333;DHT22;8784;50.94667800;7.08448400;2022-07-23T09:30:20;31.00;61.70
17333;DHT22;8784;50.94667800;7.08448400;2022-07-23T09:33:10;30.90;62.70
17333;DHT22;8784;50.94667800;7.08448400;2022-07-23T09:35:49;30.90;62.00
17333;DHT22;8784;50.94667800;7.08448400;2022-07-23T09:38:19;30.50;62.50
17333;DHT22;8784;50.94667800;7.08448400;2022-07-23T09:40:47;30.50;63.40
17333;DHT22;8784;50.94667800;7.08448400;2022-07-23T09:43:31;30.60;63.10
17333;DHT22;8784;50.94667800;7.08448400;2022-07-23T09:46:17;30.90;63.20
17333;DHT22;8784;50.94667800;7.08448400;2022-07-23T09:48:44;31.00;62.80
17333;DHT22;8784;50.94667800;7.08448400;2022-07-23T09:51:11;31.00;63.30
17333;DHT22;8784;50.94667800;7.08448400;2022-07-23T09:53:40;31.40;63.10
17333;DHT22;8784;50.94667800;7.08448400;2022-07-23T09:56:07;31.70;62.80
17333;DHT22;8784;50.94667800;7.08448400;2022-07-23T09:58:36;32.10;62.40
17333;DHT22;8784;50.94667800;7.08448400;2022-07-23T10:01:11;32.30;61.60
17333;DHT22;8784;50.94667800;7.08448400;2022-07-23T10:03:40;32.60;61.10
17333;DHT22;8784;50.94667800;7.08448400;2022-07-23T10:06:08;32.80;61.30
17333;DHT22;8784;50.94667800;7.08448400;2022-07-23T10:08:41;33.00;61.00
17333;DHT22;8784;50.94667800;7.08448400;2022-07-23T10:11:11;33.00;61.30
17333;DHT22;8784;50.94667800;7.08448400;2022-07-23T10:13:40;33.00;60.80
17333;DHT22;8784;50.94667800;7.08448400;2022-07-23T10:16:20;33.10;60.90
17333;DHT22;8784;50.94667800;7.08448400;2022-07-23T10:18:48;33.20;61.10
17333;DHT22;8784;50.94667800;7.08448400;2022-07-23T10:21:20;33.40;60.00
17333;DHT22;8784;50.94667800;7.08448400;2022-07-23T10:24:04;33.60;59.50
17333;DHT22;8784;50.94667800;7.08448400;2022-07-23T10:26:41;33.60;59.00
17333;DHT22;8784;50.94667800;7.08448400;2022-07-23T10:29:18;33.70;58.60
17333;DHT22;8784;50.94667800;7.08448400;2022-07-23T10:31:55;33.80;58.50
17333;DHT22;8784;50.94667800;7.08448400;2022-07-23T10:34:31;33.90;58.70
17333;DHT22;8784;50.94667800;7.08448400;2022-07-23T10:37:07;33.90;58.60
17333;DHT22;8784;50.94667800;7.08448400;2022-07-23T10:39:36;34.00;58.60
17333;DHT22;8784;50.94667800;7.08448400;2022-07-23T10:42:08;33.70;58.10
17333;DHT22;8784;50.94667800;7.08448400;2022-07-23T10:44:40;33.50;57.70
17333;DHT22;8784;50.94667800;7.08448400;2022-07-23T10:47:10;33.50;57.70
17333;DHT22;8784;50.94667800;7.08448400;2022-07-23T10:49:49;33.60;57.90
17333;DHT22;8784;50.94667800;7.08448400;2022-07-23T10:52:24;33.70;57.50
17333;DHT22;8784;50.94667800;7.08448400;2022-07-23T10:54:54;33.80;57.20
17333;DHT22;8784;50.94667800;7.08448400;2022-07-23T10:57:23;33.90;56.80
17333;DHT22;8784;50.94667800;7.08448400;2022-07-23T11:02:53;33.80;56.10
17333;DHT22;8784;50.94667800;7.08448400;2022-07-23T11:05:21;33.70;57.10
17333;DHT22;8784;50.94667800;7.08448400;2022-07-23T11:08:14;33.40;57.00
17333;DHT22;8784;50.94667800;7.08448400;2022-07-23T11:10:49;33.20;55.80
17333;DHT22;8784;50.94667800;7.08448400;2022-07-23T11:13:36;32.90;56.80
17333;DHT22;8784;50.94667800;7.08448400;2022-07-23T11:16:18;32.70;56.80
17333;DHT22;8784;50.94667800;7.08448400;2022-07-23T11:19:05;32.30;57.50
17333;DHT22;8784;50.94667800;7.08448400;2022-07-23T11:21:49;32.00;57.40
17333;DHT22;8784;50.94667800;7.08448400;2022-07-23T11:24:23;31.70;57.70
17333;DHT22;8784;50.94667800;7.08448400;2022-07-23T11:26:57;31.50;58.40
17333;DHT22;8784;50.94667800;7.08448400;2022-07-23T11:29:44;31.30;58.60
17333;DHT22;8784;50.94667800;7.08448400;2022-07-23T11:32:31;31.10;58.50
17333;DHT22;8784;50.94667800;7.08448400;2022-07-23T11:35:00;31.00;58.30
17333;DHT22;8784;50.94667800;7.08448400;2022-07-23T11:37:35;30.90;58.60
17333;DHT22;8784;50.94667800;7.08448400;2022-07-23T11:40:05;30.80;58.70
17333;DHT22;8784;50.94667800;7.08448400;2022-07-23T11:42:36;30.60;59.00
17333;DHT22;8784;50.94667800;7.08448400;2022-07-23T11:45:06;30.30;58.80
17333;DHT22;8784;50.94667800;7.08448400;2022-07-23T11:47:33;30.00;59.20
17333;DHT22;8784;50.94667800;7.08448400;2022-07-23T11:50:02;29.80;59.00
17333;DHT22;8784;50.94667800;7.08448400;2022-07-23T11:52:29;29.50;59.50
17333;DHT22;8784;50.94667800;7.08448400;2022-07-23T11:55:00;29.40;60.10
17333;DHT22;8784;50.94667800;7.08448400;2022-07-23T11:57:29;29.30;60.20
17333;DHT22;8784;50.94667800;7.08448400;2022-07-23T12:00:02;29.30;60.40
17333;DHT22;8784;50.94667800;7.08448400;2022-07-23T12:02:30;29.40;60.30
17333;DHT22;8784;50.94667800;7.08448400;2022-07-23T12:04:57;29.40;60.40
17333;DHT22;8784;50.94667800;7.08448400;2022-07-23T12:07:25;29.50;60.20
17333;DHT22;8784;50.94667800;7.08448400;2022-07-23T12:09:53;29.50;59.90
17333;DHT22;8784;50.94667800;7.08448400;2022-07-23T12:12:21;29.40;59.60
17333;DHT22;8784;50.94667800;7.08448400;2022-07-23T12:14:50;29.30;59.50
17333;DHT22;8784;50.94667800;7.08448400;2022-07-23T12:17:20;29.20;59.50
17333;DHT22;8784;50.94667800;7.08448400;2022-07-23T12:19:51;29.00;59.50
17333;DHT22;8784;50.94667800;7.08448400;2022-07-23T12:22:18;28.80;59.70
17333;DHT22;8784;50.94667800;7.08448400;2022-07-23T12:24:59;28.70;59.80
17333;DHT22;8784;50.94667800;7.08448400;2022-07-23T12:27:27;28.60;60.20
17333;DHT22;8784;50.94667800;7.08448400;2022-07-23T12:29:54;28.70;60.60
17333;DHT22;8784;50.94667800;7.08448400;2022-07-23T12:32:24;28.70;60.30
17333;DHT22;8784;50.94667800;7.08448400;2022-07-23T12:35:03;28.80;60.30
17333;DHT22;8784;50.94667800;7.08448400;2022-07-23T12:37:32;28.90;59.90
17333;DHT22;8784;50.94667800;7.08448400;2022-07-23T12:42:42;28.90;60.00
17333;DHT22;8784;50.94667800;7.08448400;2022-07-23T12:45:10;28.90;59.70
17333;DHT22;8784;50.94667800;7.08448400;2022-07-23T12:48:16;28.90;59.80
17333;DHT22;8784;50.94667800;7.08448400;2022-07-23T12:50:52;28.90;58.70
17333;DHT22;8784;50.94667800;7.08448400;2022-07-23T12:53:21;28.90;59.80
17333;DHT22;8784;50.94667800;7.08448400;2022-07-23T12:55:50;28.90;59.70
17333;DHT22;8784;50.94667800;7.08448400;2022-07-23T12:58:18;28.90;59.30
17333;DHT22;8784;50.94667800;7.08448400;2022-07-23T13:01:04;28.90;59.20
17333;DHT22;8784;50.94667800;7.08448400;2022-07-23T13:03:36;28.90;59.30
17333;DHT22;8784;50.94667800;7.08448400;2022-07-23T13:06:05;28.90;59.70
17333;DHT22;8784;50.94667800;7.08448400;2022-07-23T13:08:34;28.90;59.50
17333;DHT22;8784;50.94667800;7.08448400;2022-07-23T13:11:02;28.80;59.10
17333;DHT22;8784;50.94667800;7.08448400;2022-07-23T13:13:32;28.80;59.00
17333;DHT22;8784;50.94667800;7.08448400;2022-07-23T13:15:59;28.70;58.50
17333;DHT22;8784;50.94667800;7.08448400;2022-07-23T13:18:27;28.50;58.60
17333;DHT22;8784;50.94667800;7.08448400;2022-07-23T13:20:56;28.30;59.10
17333;DHT22;8784;50.94667800;7.08448400;2022-07-23T13:23:23;28.30;59.50
17333;DHT22;8784;50.94667800;7.08448400;2022-07-23T13:25:51;28.30;59.60
17333;DHT22;8784;50.94667800;7.08448400;2022-07-23T13:28:19;28.30;59.80
17333;DHT22;8784;50.94667800;7.08448400;2022-07-23T13:30:47;28.40;59.80
17333;DHT22;8784;50.94667800;7.08448400;2022-07-23T13:33:15;28.40;59.80
17333;DHT22;8784;50.94667800;7.08448400;2022-07-23T13:35:48;28.40;60.00
17333;DHT22;8784;50.94667800;7.08448400;2022-07-23T13:38:18;28.50;59.80
17333;DHT22;8784;50.94667800;7.08448400;2022-07-23T13:40:47;28.50;59.50
17333;DHT22;8784;50.94667800;7.08448400;2022-07-23T13:43:16;28.50;59.70
17333;DHT22;8784;50.94667800;7.08448400;2022-07-23T13:45:44;28.50;59.80
17333;DHT22;8784;50.94667800;7.08448400;2022-07-23T13:48:12;28.60;59.50
17333;DHT22;8784;50.94667800;7.08448400;2022-07-23T13:50:40;28.60;59.20